sensor_id;sensor_type;location;lat;lon;timestamp;P1;durP1;ratioP1;P2;durP2;ratioP2
25015;SDS011;13029;46.286;7.488;2023-07-31T00:00:04;3.78;;;2.42;;
25015;SDS011;13029;46.286;7.488;2023-07-31T00:02:30;5.03;;;2.47;;
25015;SDS011;13029;46.286;7.488;2023-07-31T00:04:55;6.95;;;2.42;;
25015;SDS011;13029;46.286;7.488;2023-07-31T00:07:21;3.88;;;2.35;;
25015;SDS011;13029;46.286;7.488;2023-07-31T00:09:46;4.60;;;2.28;;
25015;SDS011;13029;46.286;7.488;2023-07-31T00:12:11;2.63;;;2.17;;
25015;SDS011;13029;46.286;7.488;2023-07-31T00:14:37;2.97;;;2.40;;
25015;SDS011;13029;46.286;7.488;2023-07-31T00:17:02;3.97;;;2.28;;
25015;SDS011;13029;46.286;7.488;2023-07-31T00:19:27;3.95;;;2.45;;
25015;SDS011;13029;46.286;7.488;2023-07-31T00:21:53;4.90;;;2.10;;
25015;SDS011;13029;46.286;7.488;2023-07-31T00:24:18;2.47;;;2.00;;
25015;SDS011;13029;46.286;7.488;2023-07-31T00:26:43;6.85;;;2.08;;
25015;SDS011;13029;46.286;7.488;2023-07-31T00:29:08;3.60;;;2.17;;
25015;SDS011;13029;46.286;7.488;2023-07-31T00:31:34;5.25;;;2.75;;
25015;SDS011;13029;46.286;7.488;2023-07-31T00:33:59;2.65;;;1.90;;
25015;SDS011;13029;46.286;7.488;2023-07-31T00:36:24;4.05;;;2.45;;
25015;SDS011;13029;46.286;7.488;2023-07-31T00:38:50;5.15;;;2.30;;
25015;SDS011;13029;46.286;7.488;2023-07-31T00:41:15;4.38;;;2.20;;
25015;SDS011;13029;46.286;7.488;2023-07-31T00:43:40;4.72;;;2.55;;
25015;SDS011;13029;46.286;7.488;2023-07-31T00:46:06;4.10;;;2.20;;
25015;SDS011;13029;46.286;7.488;2023-07-31T00:48:32;4.20;;;2.03;;
25015;SDS011;13029;46.286;7.488;2023-07-31T00:50:57;6.72;;;2.33;;
25015;SDS011;13029;46.286;7.488;2023-07-31T00:53:23;4.68;;;2.25;;
25015;SDS011;13029;46.286;7.488;2023-07-31T00:55:49;2.40;;;1.73;;
25015;SDS011;13029;46.286;7.488;2023-07-31T00:58:15;3.97;;;2.42;;
25015;SDS011;13029;46.286;7.488;2023-07-31T01:00:40;4.13;;;2.55;;
25015;SDS011;13029;46.286;7.488;2023-07-31T01:03:06;5.32;;;2.33;;
25015;SDS011;13029;46.286;7.488;2023-07-31T01:08:29;3.90;;;2.08;;
25015;SDS011;13029;46.286;7.488;2023-07-31T01:11:07;3.75;;;2.20;;
25015;SDS011;13029;46.286;7.488;2023-07-31T01:13:47;3.35;;;2.22;;
25015;SDS011;13029;46.286;7.488;2023-07-31T01:16:12;6.80;;;2.20;;
25015;SDS011;13029;46.286;7.488;2023-07-31T01:18:38;3.33;;;2.17;;
25015;SDS011;13029;46.286;7.488;2023-07-31T01:21:06;5.18;;;3.35;;
25015;SDS011;13029;46.286;7.488;2023-07-31T01:26:40;5.70;;;2.28;;
25015;SDS011;13029;46.286;7.488;2023-07-31T01:29:20;3.50;;;1.98;;
25015;SDS011;13029;46.286;7.488;2023-07-31T01:31:50;4.00;;;2.43;;
25015;SDS011;13029;46.286;7.488;2023-07-31T01:34:18;5.20;;;2.10;;
25015;SDS011;13029;46.286;7.488;2023-07-31T01:36:44;4.63;;;2.75;;
25015;SDS011;13029;46.286;7.488;2023-07-31T01:39:09;3.83;;;2.35;;
25015;SDS011;13029;46.286;7.488;2023-07-31T01:41:35;5.22;;;2.78;;
25015;SDS011;13029;46.286;7.488;2023-07-31T01:44:00;4.70;;;2.20;;
25015;SDS011;13029;46.286;7.488;2023-07-31T01:46:25;4.53;;;2.55;;
25015;SDS011;13029;46.286;7.488;2023-07-31T01:48:50;3.63;;;1.90;;
25015;SDS011;13029;46.286;7.488;2023-07-31T01:51:16;4.93;;;2.30;;
25015;SDS011;13029;46.286;7.488;2023-07-31T01:53:41;4.43;;;1.95;;
25015;SDS011;13029;46.286;7.488;2023-07-31T01:56:07;3.63;;;2.10;;
25015;SDS011;13029;46.286;7.488;2023-07-31T01:58:32;3.88;;;2.10;;
25015;SDS011;13029;46.286;7.488;2023-07-31T02:00:57;2.95;;;2.22;;
25015;SDS011;13029;46.286;7.488;2023-07-31T02:03:23;4.13;;;2.70;;
25015;SDS011;13029;46.286;7.488;2023-07-31T02:05:48;2.78;;;2.00;;
25015;SDS011;13029;46.286;7.488;2023-07-31T02:08:14;5.82;;;2.50;;
25015;SDS011;13029;46.286;7.488;2023-07-31T02:10:40;7.60;;;2.60;;
25015;SDS011;13029;46.286;7.488;2023-07-31T02:13:05;2.80;;;2.17;;
25015;SDS011;13029;46.286;7.488;2023-07-31T02:15:31;5.03;;;2.22;;
25015;SDS011;13029;46.286;7.488;2023-07-31T02:17:56;4.20;;;2.30;;
25015;SDS011;13029;46.286;7.488;2023-07-31T02:20:22;6.00;;;2.25;;
25015;SDS011;13029;46.286;7.488;2023-07-31T02:22:47;4.55;;;2.33;;
25015;SDS011;13029;46.286;7.488;2023-07-31T02:25:12;4.15;;;2.00;;
25015;SDS011;13029;46.286;7.488;2023-07-31T02:27:38;5.53;;;2.28;;
25015;SDS011;13029;46.286;7.488;2023-07-31T02:30:03;3.83;;;2.40;;
25015;SDS011;13029;46.286;7.488;2023-07-31T02:32:28;4.97;;;2.30;;
25015;SDS011;13029;46.286;7.488;2023-07-31T02:34:54;4.22;;;2.35;;
25015;SDS011;13029;46.286;7.488;2023-07-31T02:37:19;3.58;;;1.98;;
25015;SDS011;13029;46.286;7.488;2023-07-31T02:39:44;4.53;;;2.42;;
25015;SDS011;13029;46.286;7.488;2023-07-31T02:42:10;5.45;;;2.40;;
25015;SDS011;13029;46.286;7.488;2023-07-31T02:44:35;5.00;;;2.45;;
25015;SDS011;13029;46.286;7.488;2023-07-31T02:47:00;5.13;;;2.30;;
25015;SDS011;13029;46.286;7.488;2023-07-31T02:49:25;5.65;;;2.35;;
25015;SDS011;13029;46.286;7.488;2023-07-31T02:51:51;5.85;;;1.92;;
25015;SDS011;13029;46.286;7.488;2023-07-31T02:54:16;2.47;;;2.05;;
25015;SDS011;13029;46.286;7.488;2023-07-31T02:56:41;4.47;;;2.22;;
25015;SDS011;13029;46.286;7.488;2023-07-31T02:59:07;3.13;;;2.00;;
25015;SDS011;13029;46.286;7.488;2023-07-31T03:01:32;3.95;;;2.35;;
25015;SDS011;13029;46.286;7.488;2023-07-31T03:03:57;4.57;;;2.28;;
25015;SDS011;13029;46.286;7.488;2023-07-31T03:06:23;3.47;;;2.30;;
25015;SDS011;13029;46.286;7.488;2023-07-31T03:08:48;3.05;;;2.13;;
25015;SDS011;13029;46.286;7.488;2023-07-31T03:11:13;4.45;;;2.40;;
25015;SDS011;13029;46.286;7.488;2023-07-31T03:13:39;3.13;;;2.00;;
25015;SDS011;13029;46.286;7.488;2023-07-31T03:16:04;2.65;;;1.95;;
25015;SDS011;13029;46.286;7.488;2023-07-31T03:18:29;3.63;;;2.30;;
25015;SDS011;13029;46.286;7.488;2023-07-31T03:20:55;3.47;;;1.75;;
25015;SDS011;13029;46.286;7.488;2023-07-31T03:23:20;4.07;;;2.15;;
25015;SDS011;13029;46.286;7.488;2023-07-31T03:25:55;3.72;;;2.17;;
25015;SDS011;13029;46.286;7.488;2023-07-31T03:28:24;7.63;;;2.15;;
25015;SDS011;13029;46.286;7.488;2023-07-31T03:30:49;2.95;;;2.10;;
25015;SDS011;13029;46.286;7.488;2023-07-31T03:33:15;6.53;;;2.10;;
25015;SDS011;13029;46.286;7.488;2023-07-31T03:35:41;3.67;;;2.20;;
25015;SDS011;13029;46.286;7.488;2023-07-31T03:38:06;6.97;;;2.33;;
25015;SDS011;13029;46.286;7.488;2023-07-31T03:40:31;2.92;;;1.90;;
25015;SDS011;13029;46.286;7.488;2023-07-31T03:42:57;4.45;;;2.25;;
25015;SDS011;13029;46.286;7.488;2023-07-31T03:45:22;2.95;;;1.90;;
25015;SDS011;13029;46.286;7.488;2023-07-31T03:47:47;5.22;;;2.00;;
25015;SDS011;13029;46.286;7.488;2023-07-31T03:50:12;4.20;;;2.58;;
25015;SDS011;13029;46.286;7.488;2023-07-31T03:52:38;4.53;;;2.33;;
25015;SDS011;13029;46.286;7.488;2023-07-31T03:55:03;6.18;;;2.42;;
25015;SDS011;13029;46.286;7.488;2023-07-31T03:57:29;5.50;;;2.30;;
25015;SDS011;13029;46.286;7.488;2023-07-31T03:59:54;3.70;;;2.03;;
25015;SDS011;13029;46.286;7.488;2023-07-31T04:02:19;2.45;;;1.67;;
25015;SDS011;13029;46.286;7.488;2023-07-31T04:04:45;2.30;;;1.90;;
25015;SDS011;13029;46.286;7.488;2023-07-31T04:07:10;2.55;;;2.10;;
25015;SDS011;13029;46.286;7.488;2023-07-31T04:09:36;5.68;;;1.98;;
25015;SDS011;13029;46.286;7.488;2023-07-31T04:12:01;3.20;;;2.17;;
25015;SDS011;13029;46.286;7.488;2023-07-31T04:14:26;5.78;;;2.00;;
25015;SDS011;13029;46.286;7.488;2023-07-31T04:16:51;4.20;;;2.33;;
25015;SDS011;13029;46.286;7.488;2023-07-31T04:19:17;4.05;;;2.30;;
25015;SDS011;13029;46.286;7.488;2023-07-31T04:21:42;4.03;;;2.17;;
25015;SDS011;13029;46.286;7.488;2023-07-31T04:24:08;4.40;;;2.30;;
25015;SDS011;13029;46.286;7.488;2023-07-31T04:26:33;5.75;;;2.00;;
25015;SDS011;13029;46.286;7.488;2023-07-31T04:28:59;3.63;;;2.28;;
25015;SDS011;13029;46.286;7.488;2023-07-31T04:31:24;4.95;;;2.67;;
25015;SDS011;13029;46.286;7.488;2023-07-31T04:33:49;3.30;;;2.40;;
25015;SDS011;13029;46.286;7.488;2023-07-31T04:36:14;3.47;;;2.38;;
25015;SDS011;13029;46.286;7.488;2023-07-31T04:38:41;3.03;;;2.38;;
25015;SDS011;13029;46.286;7.488;2023-07-31T04:41:06;7.43;;;2.45;;
25015;SDS011;13029;46.286;7.488;2023-07-31T04:43:31;4.03;;;2.47;;
25015;SDS011;13029;46.286;7.488;2023-07-31T04:45:57;4.15;;;2.25;;
25015;SDS011;13029;46.286;7.488;2023-07-31T04:48:23;5.15;;;2.75;;
25015;SDS011;13029;46.286;7.488;2023-07-31T04:50:48;4.15;;;2.05;;
25015;SDS011;13029;46.286;7.488;2023-07-31T04:53:13;4.07;;;2.60;;
25015;SDS011;13029;46.286;7.488;2023-07-31T04:55:39;6.70;;;2.42;;
25015;SDS011;13029;46.286;7.488;2023-07-31T04:58:04;3.47;;;2.50;;
25015;SDS011;13029;46.286;7.488;2023-07-31T05:00:29;6.10;;;3.35;;
25015;SDS011;13029;46.286;7.488;2023-07-31T05:02:55;6.30;;;2.47;;
25015;SDS011;13029;46.286;7.488;2023-07-31T05:05:20;3.90;;;2.40;;
25015;SDS011;13029;46.286;7.488;2023-07-31T05:07:45;5.55;;;2.28;;
25015;SDS011;13029;46.286;7.488;2023-07-31T05:10:11;4.30;;;2.42;;
25015;SDS011;13029;46.286;7.488;2023-07-31T05:12:36;2.20;;;2.00;;
25015;SDS011;13029;46.286;7.488;2023-07-31T05:15:01;5.53;;;2.40;;
25015;SDS011;13029;46.286;7.488;2023-07-31T05:17:27;5.05;;;2.10;;
25015;SDS011;13029;46.286;7.488;2023-07-31T05:19:52;5.88;;;2.30;;
25015;SDS011;13029;46.286;7.488;2023-07-31T05:22:17;3.70;;;2.50;;
25015;SDS011;13029;46.286;7.488;2023-07-31T05:24:43;4.20;;;2.35;;
25015;SDS011;13029;46.286;7.488;2023-07-31T05:27:08;4.70;;;2.25;;
25015;SDS011;13029;46.286;7.488;2023-07-31T05:29:34;3.72;;;2.30;;
25015;SDS011;13029;46.286;7.488;2023-07-31T05:32:00;12.13;;;2.95;;
25015;SDS011;13029;46.286;7.488;2023-07-31T05:34:25;5.15;;;2.65;;
25015;SDS011;13029;46.286;7.488;2023-07-31T05:36:50;6.40;;;2.47;;
25015;SDS011;13029;46.286;7.488;2023-07-31T05:39:16;4.93;;;3.13;;
25015;SDS011;13029;46.286;7.488;2023-07-31T05:41:41;4.68;;;2.70;;
25015;SDS011;13029;46.286;7.488;2023-07-31T05:44:06;4.60;;;2.65;;
25015;SDS011;13029;46.286;7.488;2023-07-31T05:46:32;10.00;;;2.75;;
25015;SDS011;13029;46.286;7.488;2023-07-31T05:48:57;4.38;;;2.90;;
25015;SDS011;13029;46.286;7.488;2023-07-31T05:51:25;4.03;;;2.50;;
25015;SDS011;13029;46.286;7.488;2023-07-31T05:53:50;2.95;;;2.65;;
25015;SDS011;13029;46.286;7.488;2023-07-31T05:56:16;7.47;;;2.65;;
25015;SDS011;13029;46.286;7.488;2023-07-31T05:58:41;3.50;;;2.75;;
25015;SDS011;13029;46.286;7.488;2023-07-31T06:01:06;7.30;;;3.17;;
25015;SDS011;13029;46.286;7.488;2023-07-31T06:03:32;3.70;;;2.67;;
25015;SDS011;13029;46.286;7.488;2023-07-31T06:05:57;4.28;;;2.78;;
25015;SDS011;13029;46.286;7.488;2023-07-31T06:08:22;3.83;;;2.55;;
25015;SDS011;13029;46.286;7.488;2023-07-31T06:10:47;5.10;;;2.80;;
25015;SDS011;13029;46.286;7.488;2023-07-31T06:13:13;4.13;;;2.83;;
25015;SDS011;13029;46.286;7.488;2023-07-31T06:15:38;4.38;;;2.80;;
25015;SDS011;13029;46.286;7.488;2023-07-31T06:18:03;3.35;;;2.33;;
25015;SDS011;13029;46.286;7.488;2023-07-31T06:20:32;6.28;;;2.70;;
25015;SDS011;13029;46.286;7.488;2023-07-31T06:22:58;6.97;;;2.67;;
25015;SDS011;13029;46.286;7.488;2023-07-31T06:25:24;4.30;;;2.80;;
25015;SDS011;13029;46.286;7.488;2023-07-31T06:27:49;3.88;;;2.80;;
25015;SDS011;13029;46.286;7.488;2023-07-31T06:30:14;3.30;;;2.53;;
25015;SDS011;13029;46.286;7.488;2023-07-31T06:32:40;5.40;;;2.90;;
25015;SDS011;13029;46.286;7.488;2023-07-31T06:35:05;5.20;;;2.40;;
25015;SDS011;13029;46.286;7.488;2023-07-31T06:37:31;3.08;;;2.47;;
25015;SDS011;13029;46.286;7.488;2023-07-31T06:39:57;4.03;;;2.20;;
25015;SDS011;13029;46.286;7.488;2023-07-31T06:42:22;4.25;;;2.42;;
25015;SDS011;13029;46.286;7.488;2023-07-31T06:44:47;4.65;;;2.40;;
25015;SDS011;13029;46.286;7.488;2023-07-31T06:47:13;4.60;;;2.65;;
25015;SDS011;13029;46.286;7.488;2023-07-31T06:49:38;4.72;;;2.85;;
25015;SDS011;13029;46.286;7.488;2023-07-31T06:52:03;3.38;;;2.55;;
25015;SDS011;13029;46.286;7.488;2023-07-31T06:54:29;5.20;;;2.97;;
25015;SDS011;13029;46.286;7.488;2023-07-31T06:56:54;3.55;;;2.53;;
25015;SDS011;13029;46.286;7.488;2023-07-31T06:59:19;4.00;;;2.85;;
25015;SDS011;13029;46.286;7.488;2023-07-31T07:01:45;5.32;;;2.40;;
25015;SDS011;13029;46.286;7.488;2023-07-31T07:04:10;5.10;;;2.67;;
25015;SDS011;13029;46.286;7.488;2023-07-31T07:06:35;4.70;;;3.25;;
25015;SDS011;13029;46.286;7.488;2023-07-31T07:09:01;4.63;;;3.03;;
25015;SDS011;13029;46.286;7.488;2023-07-31T07:11:26;7.75;;;3.30;;
25015;SDS011;13029;46.286;7.488;2023-07-31T07:13:51;7.50;;;3.72;;
25015;SDS011;13029;46.286;7.488;2023-07-31T07:16:17;4.47;;;3.10;;
25015;SDS011;13029;46.286;7.488;2023-07-31T07:18:42;4.63;;;3.42;;
25015;SDS011;13029;46.286;7.488;2023-07-31T07:21:07;5.18;;;3.13;;
25015;SDS011;13029;46.286;7.488;2023-07-31T07:23:33;9.18;;;4.00;;
25015;SDS011;13029;46.286;7.488;2023-07-31T07:25:59;7.95;;;3.60;;
25015;SDS011;13029;46.286;7.488;2023-07-31T07:28:24;10.80;;;4.90;;
25015;SDS011;13029;46.286;7.488;2023-07-31T07:30:53;6.18;;;3.40;;
25015;SDS011;13029;46.286;7.488;2023-07-31T07:33:21;8.68;;;3.72;;
25015;SDS011;13029;46.286;7.488;2023-07-31T07:35:46;4.20;;;3.05;;
25015;SDS011;13029;46.286;7.488;2023-07-31T07:38:13;6.53;;;3.28;;
25015;SDS011;13029;46.286;7.488;2023-07-31T07:40:39;16.05;;;6.00;;
25015;SDS011;13029;46.286;7.488;2023-07-31T07:43:05;7.72;;;3.40;;
25015;SDS011;13029;46.286;7.488;2023-07-31T07:45:30;5.78;;;3.65;;
25015;SDS011;13029;46.286;7.488;2023-07-31T07:47:55;5.70;;;3.70;;
25015;SDS011;13029;46.286;7.488;2023-07-31T07:50:21;6.38;;;3.30;;
25015;SDS011;13029;46.286;7.488;2023-07-31T07:52:46;4.05;;;3.15;;
25015;SDS011;13029;46.286;7.488;2023-07-31T07:55:11;4.40;;;3.08;;
25015;SDS011;13029;46.286;7.488;2023-07-31T07:57:37;4.82;;;2.72;;
25015;SDS011;13029;46.286;7.488;2023-07-31T08:00:02;9.25;;;2.80;;
25015;SDS011;13029;46.286;7.488;2023-07-31T08:02:28;4.15;;;2.78;;
25015;SDS011;13029;46.286;7.488;2023-07-31T08:04:53;5.47;;;3.38;;
25015;SDS011;13029;46.286;7.488;2023-07-31T08:07:18;5.30;;;2.95;;
25015;SDS011;13029;46.286;7.488;2023-07-31T08:09:44;5.05;;;3.50;;
25015;SDS011;13029;46.286;7.488;2023-07-31T08:12:09;7.10;;;3.28;;
25015;SDS011;13029;46.286;7.488;2023-07-31T08:14:34;6.63;;;3.20;;
25015;SDS011;13029;46.286;7.488;2023-07-31T08:17:00;4.35;;;2.78;;
25015;SDS011;13029;46.286;7.488;2023-07-31T08:19:26;7.30;;;3.00;;
25015;SDS011;13029;46.286;7.488;2023-07-31T08:21:52;5.15;;;3.53;;
25015;SDS011;13029;46.286;7.488;2023-07-31T08:24:17;5.80;;;3.42;;
25015;SDS011;13029;46.286;7.488;2023-07-31T08:26:42;4.05;;;3.10;;
25015;SDS011;13029;46.286;7.488;2023-07-31T08:29:08;5.07;;;3.30;;
25015;SDS011;13029;46.286;7.488;2023-07-31T08:31:33;8.10;;;3.40;;
25015;SDS011;13029;46.286;7.488;2023-07-31T08:33:59;4.45;;;3.15;;
25015;SDS011;13029;46.286;7.488;2023-07-31T08:36:25;6.22;;;3.28;;
25015;SDS011;13029;46.286;7.488;2023-07-31T08:38:50;5.72;;;3.28;;
25015;SDS011;13029;46.286;7.488;2023-07-31T08:41:16;5.28;;;3.33;;
25015;SDS011;13029;46.286;7.488;2023-07-31T08:43:45;6.13;;;3.63;;
25015;SDS011;13029;46.286;7.488;2023-07-31T08:46:11;6.80;;;3.53;;
25015;SDS011;13029;46.286;7.488;2023-07-31T08:48:37;5.25;;;3.88;;
25015;SDS011;13029;46.286;7.488;2023-07-31T08:51:03;5.80;;;3.35;;
25015;SDS011;13029;46.286;7.488;2023-07-31T08:53:28;5.25;;;3.40;;
25015;SDS011;13029;46.286;7.488;2023-07-31T08:55:54;3.83;;;3.22;;
25015;SDS011;13029;46.286;7.488;2023-07-31T08:58:19;4.57;;;3.10;;
25015;SDS011;13029;46.286;7.488;2023-07-31T09:00:48;12.68;;;4.53;;
25015;SDS011;13029;46.286;7.488;2023-07-31T09:03:15;9.07;;;3.75;;
25015;SDS011;13029;46.286;7.488;2023-07-31T09:05:45;5.25;;;3.42;;
25015;SDS011;13029;46.286;7.488;2023-07-31T09:08:12;5.13;;;3.30;;
25015;SDS011;13029;46.286;7.488;2023-07-31T09:10:41;3.72;;;2.85;;
25015;SDS011;13029;46.286;7.488;2023-07-31T09:13:07;5.53;;;3.30;;
25015;SDS011;13029;46.286;7.488;2023-07-31T09:15:33;4.90;;;3.10;;
25015;SDS011;13029;46.286;7.488;2023-07-31T09:18:00;6.38;;;3.38;;
25015;SDS011;13029;46.286;7.488;2023-07-31T09:20:26;4.25;;;3.33;;
25015;SDS011;13029;46.286;7.488;2023-07-31T09:22:51;5.95;;;2.90;;
25015;SDS011;13029;46.286;7.488;2023-07-31T09:27:50;5.53;;;3.42;;
25015;SDS011;13029;46.286;7.488;2023-07-31T09:30:16;5.97;;;3.17;;
25015;SDS011;13029;46.286;7.488;2023-07-31T09:32:42;4.65;;;3.15;;
25015;SDS011;13029;46.286;7.488;2023-07-31T09:37:52;6.93;;;3.10;;
25015;SDS011;13029;46.286;7.488;2023-07-31T09:40:31;4.85;;;2.85;;
25015;SDS011;13029;46.286;7.488;2023-07-31T09:43:04;5.60;;;3.15;;
25015;SDS011;13029;46.286;7.488;2023-07-31T09:45:35;4.78;;;2.70;;
25015;SDS011;13029;46.286;7.488;2023-07-31T09:48:02;8.15;;;4.18;;
25015;SDS011;13029;46.286;7.488;2023-07-31T09:50:28;8.40;;;3.55;;
25015;SDS011;13029;46.286;7.488;2023-07-31T09:52:54;8.45;;;3.80;;
25015;SDS011;13029;46.286;7.488;2023-07-31T09:55:19;7.95;;;4.70;;
25015;SDS011;13029;46.286;7.488;2023-07-31T09:57:45;13.65;;;4.30;;
25015;SDS011;13029;46.286;7.488;2023-07-31T10:00:12;8.85;;;4.30;;
25015;SDS011;13029;46.286;7.488;2023-07-31T10:02:38;8.35;;;3.88;;
25015;SDS011;13029;46.286;7.488;2023-07-31T10:05:05;6.05;;;3.33;;
25015;SDS011;13029;46.286;7.488;2023-07-31T10:07:31;7.03;;;3.25;;
25015;SDS011;13029;46.286;7.488;2023-07-31T10:10:01;4.30;;;3.00;;
25015;SDS011;13029;46.286;7.488;2023-07-31T10:12:27;3.85;;;3.00;;
25015;SDS011;13029;46.286;7.488;2023-07-31T10:14:55;5.68;;;2.97;;
25015;SDS011;13029;46.286;7.488;2023-07-31T10:17:24;4.57;;;3.00;;
25015;SDS011;13029;46.286;7.488;2023-07-31T10:19:50;6.22;;;3.17;;
25015;SDS011;13029;46.286;7.488;2023-07-31T10:22:16;4.90;;;2.83;;
25015;SDS011;13029;46.286;7.488;2023-07-31T10:24:43;5.55;;;3.03;;
25015;SDS011;13029;46.286;7.488;2023-07-31T10:27:12;5.70;;;2.70;;
25015;SDS011;13029;46.286;7.488;2023-07-31T10:29:38;4.32;;;2.60;;
25015;SDS011;13029;46.286;7.488;2023-07-31T10:32:03;7.57;;;3.33;;
25015;SDS011;13029;46.286;7.488;2023-07-31T10:34:31;3.97;;;2.67;;
25015;SDS011;13029;46.286;7.488;2023-07-31T10:39:56;7.88;;;2.72;;
25015;SDS011;13029;46.286;7.488;2023-07-31T10:42:35;6.63;;;3.03;;
25015;SDS011;13029;46.286;7.488;2023-07-31T10:45:23;3.50;;;2.65;;
25015;SDS011;13029;46.286;7.488;2023-07-31T10:47:51;7.68;;;2.90;;
25015;SDS011;13029;46.286;7.488;2023-07-31T10:50:24;4.68;;;2.25;;
25015;SDS011;13029;46.286;7.488;2023-07-31T10:52:53;3.42;;;2.55;;
25015;SDS011;13029;46.286;7.488;2023-07-31T10:55:26;3.95;;;2.38;;
25015;SDS011;13029;46.286;7.488;2023-07-31T10:57:56;5.25;;;2.70;;
25015;SDS011;13029;46.286;7.488;2023-07-31T11:02:56;4.05;;;2.75;;
25015;SDS011;13029;46.286;7.488;2023-07-31T11:05:39;3.70;;;2.60;;
25015;SDS011;13029;46.286;7.488;2023-07-31T11:08:22;6.43;;;3.13;;
25015;SDS011;13029;46.286;7.488;2023-07-31T11:10:49;3.53;;;2.70;;
25015;SDS011;13029;46.286;7.488;2023-07-31T11:13:48;6.20;;;2.88;;
25015;SDS011;13029;46.286;7.488;2023-07-31T11:16:15;3.50;;;2.63;;
25015;SDS011;13029;46.286;7.488;2023-07-31T11:18:42;5.40;;;2.78;;
25015;SDS011;13029;46.286;7.488;2023-07-31T11:21:11;4.63;;;2.80;;
25015;SDS011;13029;46.286;7.488;2023-07-31T11:23:38;4.80;;;2.67;;
25015;SDS011;13029;46.286;7.488;2023-07-31T11:26:04;2.65;;;2.28;;
25015;SDS011;13029;46.286;7.488;2023-07-31T11:28:33;4.03;;;2.80;;
25015;SDS011;13029;46.286;7.488;2023-07-31T11:31:00;3.42;;;2.33;;
25015;SDS011;13029;46.286;7.488;2023-07-31T11:33:25;4.60;;;2.53;;
25015;SDS011;13029;46.286;7.488;2023-07-31T11:35:51;3.25;;;2.50;;
25015;SDS011;13029;46.286;7.488;2023-07-31T11:38:27;5.60;;;2.15;;
25015;SDS011;13029;46.286;7.488;2023-07-31T11:40:53;3.92;;;2.05;;
25015;SDS011;13029;46.286;7.488;2023-07-31T11:43:20;5.55;;;2.75;;
25015;SDS011;13029;46.286;7.488;2023-07-31T11:45:47;2.47;;;2.17;;
25015;SDS011;13029;46.286;7.488;2023-07-31T11:48:22;4.30;;;2.72;;
25015;SDS011;13029;46.286;7.488;2023-07-31T11:50:49;3.67;;;2.30;;
25015;SDS011;13029;46.286;7.488;2023-07-31T11:53:16;4.88;;;2.85;;
25015;SDS011;13029;46.286;7.488;2023-07-31T11:55:42;2.42;;;1.98;;
25015;SDS011;13029;46.286;7.488;2023-07-31T11:58:08;3.45;;;2.30;;
25015;SDS011;13029;46.286;7.488;2023-07-31T12:00:34;9.63;;;2.58;;
25015;SDS011;13029;46.286;7.488;2023-07-31T12:02:59;3.22;;;2.50;;
25015;SDS011;13029;46.286;7.488;2023-07-31T12:05:25;4.35;;;2.22;;
25015;SDS011;13029;46.286;7.488;2023-07-31T12:07:51;3.00;;;2.40;;
25015;SDS011;13029;46.286;7.488;2023-07-31T12:10:30;4.22;;;2.70;;
25015;SDS011;13029;46.286;7.488;2023-07-31T12:13:01;3.33;;;2.28;;
25015;SDS011;13029;46.286;7.488;2023-07-31T12:15:45;2.75;;;2.28;;
25015;SDS011;13029;46.286;7.488;2023-07-31T12:18:11;2.90;;;1.88;;
25015;SDS011;13029;46.286;7.488;2023-07-31T12:20:43;2.90;;;2.00;;
25015;SDS011;13029;46.286;7.488;2023-07-31T12:23:26;2.83;;;2.17;;
25015;SDS011;13029;46.286;7.488;2023-07-31T12:28:34;3.05;;;2.70;;
25015;SDS011;13029;46.286;7.488;2023-07-31T12:31:05;5.07;;;2.70;;
25015;SDS011;13029;46.286;7.488;2023-07-31T12:33:31;3.72;;;2.58;;
25015;SDS011;13029;46.286;7.488;2023-07-31T12:35:57;3.08;;;2.28;;
25015;SDS011;13029;46.286;7.488;2023-07-31T12:38:24;2.45;;;2.20;;
25015;SDS011;13029;46.286;7.488;2023-07-31T12:40:50;6.90;;;2.85;;
25015;SDS011;13029;46.286;7.488;2023-07-31T12:43:15;3.30;;;2.58;;
25015;SDS011;13029;46.286;7.488;2023-07-31T12:45:40;4.55;;;2.58;;
25015;SDS011;13029;46.286;7.488;2023-07-31T12:48:06;3.20;;;2.22;;
25015;SDS011;13029;46.286;7.488;2023-07-31T12:50:31;5.65;;;2.47;;
25015;SDS011;13029;46.286;7.488;2023-07-31T12:52:57;4.03;;;2.50;;
25015;SDS011;13029;46.286;7.488;2023-07-31T12:55:22;5.07;;;2.35;;
25015;SDS011;13029;46.286;7.488;2023-07-31T12:57:48;4.47;;;2.85;;
25015;SDS011;13029;46.286;7.488;2023-07-31T13:00:14;3.10;;;2.33;;
25015;SDS011;13029;46.286;7.488;2023-07-31T13:02:39;3.20;;;2.40;;
25015;SDS011;13029;46.286;7.488;2023-07-31T13:05:05;4.75;;;2.30;;
25015;SDS011;13029;46.286;7.488;2023-07-31T13:07:30;5.47;;;2.97;;
25015;SDS011;13029;46.286;7.488;2023-07-31T13:09:55;3.33;;;2.28;;
25015;SDS011;13029;46.286;7.488;2023-07-31T13:12:21;4.57;;;2.35;;
25015;SDS011;13029;46.286;7.488;2023-07-31T13:14:46;4.18;;;2.53;;
25015;SDS011;13029;46.286;7.488;2023-07-31T13:17:11;4.97;;;2.70;;
25015;SDS011;13029;46.286;7.488;2023-07-31T13:19:37;3.10;;;2.33;;
25015;SDS011;13029;46.286;7.488;2023-07-31T13:22:02;6.00;;;2.58;;
25015;SDS011;13029;46.286;7.488;2023-07-31T13:24:29;4.82;;;2.70;;
25015;SDS011;13029;46.286;7.488;2023-07-31T13:26:55;5.18;;;2.72;;
25015;SDS011;13029;46.286;7.488;2023-07-31T13:29:20;3.42;;;2.40;;
25015;SDS011;13029;46.286;7.488;2023-07-31T13:31:46;4.65;;;2.60;;
25015;SDS011;13029;46.286;7.488;2023-07-31T13:34:12;4.60;;;2.70;;
25015;SDS011;13029;46.286;7.488;2023-07-31T13:36:37;2.78;;;2.47;;
25015;SDS011;13029;46.286;7.488;2023-07-31T13:39:02;2.60;;;2.17;;
25015;SDS011;13029;46.286;7.488;2023-07-31T13:41:28;3.03;;;2.33;;
25015;SDS011;13029;46.286;7.488;2023-07-31T13:43:53;3.85;;;2.40;;
25015;SDS011;13029;46.286;7.488;2023-07-31T13:46:18;4.13;;;2.20;;
25015;SDS011;13029;46.286;7.488;2023-07-31T13:48:44;3.15;;;2.22;;
25015;SDS011;13029;46.286;7.488;2023-07-31T13:51:09;2.65;;;2.20;;
25015;SDS011;13029;46.286;7.488;2023-07-31T13:53:34;4.05;;;2.30;;
25015;SDS011;13029;46.286;7.488;2023-07-31T13:55:59;5.53;;;2.40;;
25015;SDS011;13029;46.286;7.488;2023-07-31T13:58:25;3.92;;;2.00;;
25015;SDS011;13029;46.286;7.488;2023-07-31T14:00:50;2.38;;;1.98;;
25015;SDS011;13029;46.286;7.488;2023-07-31T14:03:16;4.03;;;2.08;;
25015;SDS011;13029;46.286;7.488;2023-07-31T14:05:41;4.03;;;2.40;;
25015;SDS011;13029;46.286;7.488;2023-07-31T14:08:06;5.43;;;2.58;;
25015;SDS011;13029;46.286;7.488;2023-07-31T14:10:32;3.65;;;2.15;;
25015;SDS011;13029;46.286;7.488;2023-07-31T14:12:57;2.65;;;1.98;;
25015;SDS011;13029;46.286;7.488;2023-07-31T14:15:22;3.75;;;2.35;;
25015;SDS011;13029;46.286;7.488;2023-07-31T14:17:47;4.57;;;2.17;;
25015;SDS011;13029;46.286;7.488;2023-07-31T14:20:13;3.63;;;2.20;;
25015;SDS011;13029;46.286;7.488;2023-07-31T14:22:38;3.38;;;2.10;;
25015;SDS011;13029;46.286;7.488;2023-07-31T14:25:04;2.88;;;2.22;;
25015;SDS011;13029;46.286;7.488;2023-07-31T14:27:29;4.45;;;2.15;;
25015;SDS011;13029;46.286;7.488;2023-07-31T14:29:55;3.92;;;2.30;;
25015;SDS011;13029;46.286;7.488;2023-07-31T14:32:21;6.70;;;2.30;;
25015;SDS011;13029;46.286;7.488;2023-07-31T14:34:48;4.72;;;2.20;;
25015;SDS011;13029;46.286;7.488;2023-07-31T14:37:13;3.17;;;2.25;;
25015;SDS011;13029;46.286;7.488;2023-07-31T14:39:39;3.92;;;2.22;;
25015;SDS011;13029;46.286;7.488;2023-07-31T14:42:04;6.63;;;2.55;;
25015;SDS011;13029;46.286;7.488;2023-07-31T14:44:29;4.03;;;2.63;;
25015;SDS011;13029;46.286;7.488;2023-07-31T14:46:55;4.15;;;2.08;;
25015;SDS011;13029;46.286;7.488;2023-07-31T14:49:20;5.57;;;2.15;;
25015;SDS011;13029;46.286;7.488;2023-07-31T14:51:45;3.55;;;2.28;;
25015;SDS011;13029;46.286;7.488;2023-07-31T14:54:11;2.90;;;2.13;;
25015;SDS011;13029;46.286;7.488;2023-07-31T14:56:36;5.55;;;2.35;;
25015;SDS011;13029;46.286;7.488;2023-07-31T14:59:01;3.67;;;2.35;;
25015;SDS011;13029;46.286;7.488;2023-07-31T15:01:27;3.53;;;2.17;;